This is the latest recevied weather packets stored in our database for station/object OK1PMP-6. If no packets are shown the sender has not sent any weather packets the latest 10 day(s).
| Time | Temp. | Humidity | Pressure | Rain* | Wind** | Luminosity | Snow |
|---|---|---|---|---|---|---|---|
| 1777897686 | 23.89° C | 40% | 1016.6 hPa | 0 mm | - | 340 W/m² | - |
| 1777896787 | 22.78° C | 39% | 1016.6 hPa | 0 mm | - | 379 W/m² | - |
| 1777895885 | 22.78° C | 39% | 1016.9 hPa | 0 mm | - | 320 W/m² | - |
| 1777894986 | 23.33° C | 39% | 1016.9 hPa | 0 mm | - | 561 W/m² | - |
| 1777894086 | 22.78° C | 38% | 1017.2 hPa | 0 mm | - | 485 W/m² | - |
| 1777893186 | 23.33° C | 37% | 1017.2 hPa | 0 mm | - | 718 W/m² | - |
| 1777892285 | 23.33° C | 39% | 1017.2 hPa | 0 mm | - | 729 W/m² | - |
| 1777891386 | 22.22° C | 41% | 1017.6 hPa | 0 mm | - | 608 W/m² | - |
| 1777890486 | 22.78° C | 38% | 1017.5 hPa | 0 mm | - | 653 W/m² | - |
| 1777889587 | 21.67° C | 42% | 1017.6 hPa | 0 mm | - | 534 W/m² | - |
| 1777888690 | 21.11° C | 42% | 1017.7 hPa | 0 mm | - | 452 W/m² | - |
| 1777887786 | 20.56° C | 44% | 1017.9 hPa | 0 mm | - | 421 W/m² | - |
| 1777886886 | 20° C | 44% | 1018 hPa | 0 mm | - | 494 W/m² | - |
| 1777885985 | 18.89° C | 47% | 1018 hPa | 0 mm | - | 378 W/m² | - |
| 1777885086 | 18.33° C | 48% | 1018.3 hPa | 0 mm | - | 374 W/m² | - |
| 1777884186 | 17.22° C | 49% | 1018.1 hPa | 0 mm | - | 178 W/m² | - |
| 1777883287 | 17.22° C | 49% | 1018.1 hPa | 0 mm | - | 158 W/m² | - |
| 1777882387 | 17.78° C | 47% | 1017.8 hPa | 0 mm | - | 169 W/m² | - |
| 1777881487 | 17.78° C | 48% | 1018.1 hPa | 0 mm | - | 586 W/m² | - |
| 1777880589 | 17.22° C | 50% | 1018.3 hPa | 0 mm | - | 629 W/m² | - |
| 1777879689 | 15.56° C | 53% | 1017.8 hPa | 0 mm | - | 223 W/m² | - |
| 1777878787 | 15.56° C | 53% | 1017.9 hPa | 0 mm | - | 170 W/m² | - |
| 1777877886 | 15° C | 54% | 1017.8 hPa | 0 mm | - | 277 W/m² | - |
| 1777876986 | 14.44° C | 56% | 1017.7 hPa | 0 mm | - | 184 W/m² | - |
| 1777876086 | 13.89° C | 55% | 1017.9 hPa | 0 mm | - | 144 W/m² | - |
* Rain latest hour (hover to see other rain measurements)
** Current wind speed in m/s (hover to see current wind gust speed)